createdAt,value
2022-09-26T00:00:20.544Z,15.18
2022-09-26T00:02:53.105Z,15.12
2022-09-26T00:05:23.278Z,15.13
2022-09-26T00:07:53.368Z,15.12
2022-09-26T00:10:23.454Z,15.12
2022-09-26T00:12:53.514Z,15.11
2022-09-26T00:15:23.501Z,14.99
2022-09-26T00:17:56.231Z,15.02
2022-09-26T00:20:27.810Z,15.01
2022-09-26T00:22:57.964Z,14.94
2022-09-26T00:25:28.006Z,14.91
2022-09-26T00:27:58.039Z,14.92
2022-09-26T00:30:28.260Z,14.88
2022-09-26T00:33:01.309Z,14.84
2022-09-26T00:35:31.447Z,14.84
2022-09-26T00:38:01.519Z,14.78
2022-09-26T00:40:32.622Z,14.77
2022-09-26T00:43:03.194Z,14.78
2022-09-26T00:45:34.363Z,14.74
2022-09-26T00:48:09.486Z,14.74
2022-09-26T00:50:43.525Z,14.73
2022-09-26T00:53:18.305Z,14.75
2022-09-26T00:55:54.839Z,14.68
2022-09-26T00:58:30.368Z,14.60
2022-09-26T01:01:01.459Z,14.60
2022-09-26T01:03:35.133Z,14.51
2022-09-26T01:06:05.551Z,14.58
2022-09-26T01:08:42.439Z,14.53
2022-09-26T01:11:17.180Z,14.48
2022-09-26T01:13:48.773Z,14.41
2022-09-26T01:16:20.290Z,14.33
2022-09-26T01:18:53.082Z,14.30
2022-09-26T01:21:52.038Z,14.32
2022-09-26T01:24:53.659Z,14.25
2022-09-26T01:27:42.694Z,14.20
2022-09-26T01:30:26.671Z,14.13
2022-09-26T01:33:41.029Z,14.13
2022-09-26T01:37:03.547Z,14.10
2022-09-26T01:39:48.153Z,14.11
2022-09-26T01:42:30.764Z,14.19
2022-09-26T01:45:10.748Z,14.22
2022-09-26T01:47:48.030Z,14.15
2022-09-26T01:50:27.332Z,14.09
2022-09-26T01:53:03.758Z,14.00
2022-09-26T01:55:40.475Z,13.90
2022-09-26T01:58:17.799Z,13.79
2022-09-26T02:00:51.265Z,13.76
2022-09-26T02:03:30.383Z,13.75
2022-09-26T02:06:07.615Z,13.69
2022-09-26T02:08:44.511Z,13.64
2022-09-26T02:11:18.730Z,13.68
2022-09-26T02:13:55.666Z,13.66
2022-09-26T02:16:31.118Z,13.73
2022-09-26T02:19:10.368Z,13.75
2022-09-26T02:21:40.661Z,13.75
2022-09-26T02:24:11.139Z,13.63
2022-09-26T02:26:42.353Z,13.68
2022-09-26T02:29:13.341Z,13.75
2022-09-26T02:31:51.239Z,13.82
2022-09-26T02:34:24.699Z,13.88
2022-09-26T02:36:57.456Z,13.89
2022-09-26T02:39:31.018Z,13.90
2022-09-26T02:42:22.158Z,13.98
2022-09-26T02:45:15.401Z,14.00
2022-09-26T02:48:25.010Z,14.02
2022-09-26T02:51:13.418Z,14.02
2022-09-26T02:54:03.485Z,14.04
2022-09-26T02:56:59.634Z,14.03
2022-09-26T02:59:36.699Z,14.03
2022-09-26T03:02:16.335Z,14.04
2022-09-26T03:04:56.789Z,14.04
2022-09-26T03:07:36.413Z,14.04
2022-09-26T03:10:10.875Z,14.07
2022-09-26T03:12:44.519Z,14.09
2022-09-26T03:15:16.804Z,14.10
2022-09-26T03:17:54.396Z,14.11
2022-09-26T03:20:26.347Z,14.08
2022-09-26T03:23:00.934Z,14.11
2022-09-26T03:25:31.656Z,14.13
2022-09-26T03:28:10.633Z,14.15
2022-09-26T03:30:40.819Z,14.16
2022-09-26T03:33:31.330Z,14.19
2022-09-26T03:36:03.518Z,14.18
2022-09-26T03:38:36.355Z,14.24
2022-09-26T03:41:26.615Z,14.20
2022-09-26T03:44:19.453Z,14.17
2022-09-26T03:47:12.690Z,14.23
2022-09-26T03:49:47.782Z,14.28
2022-09-26T03:52:19.316Z,14.29
2022-09-26T03:54:56.079Z,14.27
2022-09-26T03:57:26.358Z,14.26
2022-09-26T04:00:04.010Z,14.27
2022-09-26T04:02:46.405Z,14.30
2022-09-26T04:05:29.899Z,14.28
2022-09-26T04:08:03.175Z,14.20
2022-09-26T04:10:36.959Z,14.20
2022-09-26T04:13:09.174Z,14.11
2022-09-26T04:15:40.003Z,14.03
2022-09-26T04:18:15.491Z,13.94
2022-09-26T04:20:45.901Z,13.84
2022-09-26T04:23:16.396Z,13.89
2022-09-26T04:25:49.140Z,13.86
2022-09-26T04:28:19.415Z,13.80
2022-09-26T04:30:50.020Z,13.75
2022-09-26T04:33:21.421Z,13.80
2022-09-26T04:36:08.711Z,13.70
2022-09-26T04:38:39.554Z,13.69
2022-09-26T04:41:18.297Z,13.76
2022-09-26T04:43:51.664Z,13.84
2022-09-26T04:46:29.652Z,13.83
2022-09-26T04:49:03.245Z,13.81
2022-09-26T04:51:35.138Z,13.78
2022-09-26T04:54:05.220Z,13.81
2022-09-26T04:56:44.253Z,13.90
2022-09-26T04:59:14.560Z,13.69
2022-09-26T05:01:56.361Z,13.65
2022-09-26T05:04:33.568Z,13.65
2022-09-26T05:07:03.829Z,13.56
2022-09-26T05:09:36.441Z,13.42
2022-09-26T05:12:29.488Z,13.41
2022-09-26T05:15:00.179Z,13.44
2022-09-26T05:17:33.161Z,13.57
2022-09-26T05:20:08.421Z,13.52
2022-09-26T05:22:48.231Z,13.50
2022-09-26T05:25:31.721Z,13.42
2022-09-26T05:28:05.577Z,13.57
2022-09-26T05:30:37.355Z,13.76
2022-09-26T05:33:07.587Z,13.74
2022-09-26T05:35:38.036Z,13.79
2022-09-26T05:38:08.371Z,13.78
2022-09-26T05:40:58.477Z,13.80
2022-09-26T05:43:35.618Z,13.73
2022-09-26T05:46:11.783Z,13.59
2022-09-26T05:48:48.427Z,13.63
2022-09-26T05:51:25.180Z,13.72
2022-09-26T05:53:55.434Z,13.65
2022-09-26T05:56:28.669Z,13.51
2022-09-26T05:59:20.145Z,13.46
2022-09-26T06:02:20.089Z,13.37
2022-09-26T06:05:10.702Z,13.33
2022-09-26T06:07:41.050Z,13.30
2022-09-26T06:10:18.995Z,13.34
2022-09-26T06:13:05.069Z,13.32
2022-09-26T06:15:44.787Z,13.43
2022-09-26T06:18:14.871Z,13.36
2022-09-26T06:20:44.954Z,13.51
2022-09-26T06:23:15.900Z,13.62
2022-09-26T06:25:49.140Z,13.63
2022-09-26T06:28:19.264Z,13.71
2022-09-26T06:30:51.891Z,13.74
2022-09-26T06:33:35.683Z,13.63
2022-09-26T06:36:27.071Z,13.68
2022-09-26T06:38:58.369Z,13.65
2022-09-26T06:41:30.717Z,13.72
2022-09-26T06:44:03.150Z,13.87
2022-09-26T06:47:02.052Z,13.88
2022-09-26T06:49:38.591Z,13.86
2022-09-26T06:52:24.065Z,14.00
2022-09-26T06:54:54.654Z,14.23
2022-09-26T06:57:24.862Z,14.41
2022-09-26T06:59:54.912Z,14.44
2022-09-26T07:02:36.031Z,14.67
2022-09-26T07:05:29.610Z,14.50
2022-09-26T07:07:59.687Z,14.67
2022-09-26T07:10:36.153Z,14.95
2022-09-26T07:13:10.269Z,15.12
2022-09-26T07:15:40.514Z,15.25
2022-09-26T07:18:29.711Z,15.45
2022-09-26T07:21:08.051Z,15.73
2022-09-26T07:23:47.088Z,16.19
2022-09-26T07:26:19.041Z,15.97
2022-09-26T07:28:54.289Z,16.85
2022-09-26T07:31:26.336Z,17.02
2022-09-26T07:34:14.587Z,17.68
2022-09-26T07:36:48.464Z,18.58
2022-09-26T07:39:18.456Z,19.35
2022-09-26T07:41:49.948Z,19.90
2022-09-26T07:47:22.759Z,17.29
2022-09-26T07:50:08.137Z,17.33
2022-09-26T07:52:52.439Z,16.87
2022-09-26T07:55:24.868Z,16.68
2022-09-26T07:58:07.924Z,16.92
2022-09-26T08:00:55.738Z,17.19
2022-09-26T08:03:48.269Z,16.79
2022-09-26T08:06:36.910Z,17.08
2022-09-26T08:09:08.094Z,18.48
2022-09-26T08:12:07.294Z,19.32
2022-09-26T08:14:52.976Z,20.95
2022-09-26T08:17:34.089Z,22.72
2022-09-26T08:20:06.536Z,23.95
2022-09-26T08:22:39.824Z,24.30
2022-09-26T08:25:12.460Z,24.10
2022-09-26T08:28:01.254Z,23.05
2022-09-26T08:30:31.598Z,24.52
2022-09-26T08:33:04.966Z,25.22
2022-09-26T08:35:38.733Z,25.91
2022-09-26T08:38:25.317Z,27.03
2022-09-26T08:41:26.078Z,27.56
2022-09-26T08:44:31.648Z,25.00
2022-09-26T08:47:39.914Z,23.98
2022-09-26T08:50:41.753Z,24.64
2022-09-26T08:53:16.092Z,25.79
2022-09-26T08:56:00.523Z,26.37
2022-09-26T08:58:43.870Z,26.64
2022-09-26T09:01:17.877Z,27.03
2022-09-26T09:04:13.642Z,26.02
2022-09-26T09:06:45.048Z,26.39
2022-09-26T09:09:20.082Z,27.43
2022-09-26T09:12:14.876Z,27.34
2022-09-26T09:15:24.669Z,24.56
2022-09-26T09:18:24.486Z,23.21
2022-09-26T09:21:41.626Z,22.82
2022-09-26T09:24:26.663Z,23.42
2022-09-26T09:30:21.550Z,25.01
2022-09-26T09:33:17.835Z,24.41
2022-09-26T09:36:14.086Z,23.55
2022-09-26T09:39:06.646Z,22.88
2022-09-26T09:42:09.660Z,23.87
2022-09-26T09:44:48.109Z,23.48
2022-09-26T09:47:21.976Z,22.51
2022-09-26T09:49:53.125Z,21.82
2022-09-26T09:52:42.811Z,21.77
2022-09-26T09:55:28.666Z,21.88
2022-09-26T09:58:31.169Z,21.41
2022-09-26T10:01:11.443Z,20.98
2022-09-26T10:03:50.800Z,21.17
2022-09-26T10:06:44.397Z,21.46
2022-09-26T10:09:35.727Z,21.90
2022-09-26T10:12:33.103Z,22.79
2022-09-26T10:15:31.621Z,22.84
2022-09-26T10:18:29.797Z,22.97
2022-09-26T10:21:19.733Z,23.25
2022-09-26T10:23:52.878Z,23.11
2022-09-26T10:26:39.580Z,22.36
2022-09-26T10:29:25.747Z,22.40
2022-09-26T10:32:01.759Z,22.75
2022-09-26T10:34:35.430Z,22.75
2022-09-26T10:37:24.915Z,22.80
2022-09-26T10:40:21.755Z,22.38
2022-09-26T10:42:52.681Z,22.13
2022-09-26T10:45:29.486Z,21.68
2022-09-26T10:48:41.553Z,21.94
2022-09-26T10:51:47.600Z,23.25
2022-09-26T10:54:23.108Z,22.57
2022-09-26T10:56:59.396Z,23.29
2022-09-26T10:59:36.329Z,24.09
2022-09-26T11:02:07.908Z,24.40
2022-09-26T11:05:01.941Z,23.31
2022-09-26T11:07:52.440Z,21.97
2022-09-26T11:10:41.668Z,21.37
2022-09-26T11:13:27.063Z,23.97
2022-09-26T11:16:14.769Z,25.04
2022-09-26T11:18:57.257Z,26.97
2022-09-26T11:21:41.448Z,27.82
2022-09-26T11:24:19.969Z,28.17
2022-09-26T11:27:07.779Z,25.24
2022-09-26T11:29:49.179Z,24.62
2022-09-26T11:32:32.308Z,25.47
2022-09-26T11:35:43.434Z,27.13
2022-09-26T11:38:38.963Z,27.44
2022-09-26T11:41:42.177Z,27.40
2022-09-26T11:44:35.517Z,25.35
2022-09-26T11:48:11.355Z,23.23
2022-09-26T11:51:08.384Z,22.55
2022-09-26T11:54:06.837Z,25.71
2022-09-26T11:56:53.600Z,27.09
2022-09-26T11:59:50.677Z,27.99
2022-09-26T12:03:09.982Z,25.51
2022-09-26T12:05:53.585Z,25.03
2022-09-26T12:08:40.903Z,26.26
2022-09-26T12:11:22.676Z,28.14
2022-09-26T12:14:02.279Z,25.80
2022-09-26T12:16:41.216Z,25.54
2022-09-26T12:19:23.602Z,27.69
2022-09-26T12:22:13.795Z,28.52
2022-09-26T12:24:59.171Z,29.69
2022-09-26T12:27:39.000Z,29.65
2022-09-26T12:30:12.980Z,28.58
2022-09-26T12:33:03.022Z,26.92
2022-09-26T12:35:52.256Z,25.85
2022-09-26T12:38:41.556Z,24.19
2022-09-26T12:41:51.884Z,22.76
2022-09-26T12:44:44.849Z,21.47
2022-09-26T12:47:53.623Z,20.64
2022-09-26T12:50:39.635Z,20.53
2022-09-26T12:53:42.203Z,20.07
2022-09-26T12:56:17.904Z,19.67
2022-09-26T12:59:12.399Z,19.39
2022-09-26T13:02:11.973Z,19.41
2022-09-26T13:05:20.411Z,19.36
2022-09-26T13:08:06.020Z,19.54
2022-09-26T13:10:50.663Z,19.26
2022-09-26T13:13:47.820Z,19.19
2022-09-26T13:16:31.952Z,18.86
2022-09-26T13:19:15.413Z,19.01
2022-09-26T13:21:50.681Z,19.03
2022-09-26T13:24:26.889Z,18.95
2022-09-26T13:27:04.004Z,19.09
2022-09-26T13:29:38.124Z,19.00
2022-09-26T13:32:23.051Z,19.27
2022-09-26T13:35:04.285Z,19.19
2022-09-26T13:37:50.635Z,19.54
2022-09-26T13:40:34.710Z,19.82
2022-09-26T13:43:23.992Z,19.63
2022-09-26T13:46:03.795Z,19.47
2022-09-26T13:48:50.158Z,19.28
2022-09-26T13:51:28.415Z,18.90
2022-09-26T13:54:06.333Z,18.59
2022-09-26T13:56:51.345Z,18.55
2022-09-26T13:59:54.428Z,18.79
2022-09-26T14:02:29.854Z,18.89
2022-09-26T14:05:51.422Z,18.89
2022-09-26T14:08:48.652Z,18.94
2022-09-26T14:11:30.760Z,19.01
2022-09-26T14:14:28.363Z,18.72
2022-09-26T14:17:00.481Z,18.87
2022-09-26T14:19:38.441Z,18.98
2022-09-26T14:22:37.952Z,18.86
2022-09-26T14:25:57.090Z,19.28
2022-09-26T14:28:36.053Z,20.71
2022-09-26T14:31:18.872Z,21.00
2022-09-26T14:33:49.452Z,20.85
2022-09-26T14:36:30.408Z,20.26
2022-09-26T14:39:03.743Z,19.67
2022-09-26T14:41:37.727Z,19.94
2022-09-26T14:44:20.964Z,21.33
2022-09-26T14:46:56.220Z,20.66
2022-09-26T14:49:31.712Z,19.74
2022-09-26T14:52:10.403Z,21.03
2022-09-26T14:54:44.478Z,22.32
2022-09-26T14:57:24.676Z,21.01
2022-09-26T14:59:54.982Z,20.19
2022-09-26T15:02:41.668Z,19.60
2022-09-26T15:05:25.972Z,19.21
2022-09-26T15:08:00.603Z,18.95
2022-09-26T15:10:45.254Z,18.68
2022-09-26T15:13:30.072Z,18.50
2022-09-26T15:16:21.540Z,18.44
2022-09-26T15:18:57.079Z,18.47
2022-09-26T15:21:35.714Z,20.73
2022-09-26T15:24:25.073Z,21.57
2022-09-26T15:27:00.720Z,21.56
2022-09-26T15:29:31.200Z,22.08
2022-09-26T15:32:02.497Z,20.79
2022-09-26T15:34:39.087Z,19.48
2022-09-26T15:37:18.861Z,18.96
2022-09-26T15:39:49.179Z,18.67
2022-09-26T15:42:44.166Z,18.41
2022-09-26T15:45:33.804Z,18.18
2022-09-26T15:48:06.706Z,18.02
2022-09-26T15:50:44.944Z,17.90
2022-09-26T15:53:26.719Z,17.71
2022-09-26T15:56:00.384Z,17.76
2022-09-26T15:58:41.000Z,17.76
2022-09-26T16:01:13.266Z,17.55
2022-09-26T16:03:49.968Z,17.34
2022-09-26T16:06:28.308Z,17.33
2022-09-26T16:09:04.165Z,17.04
2022-09-26T16:11:35.791Z,16.91
2022-09-26T16:14:08.929Z,16.92
2022-09-26T16:16:39.399Z,16.93
2022-09-26T16:19:10.863Z,16.69
2022-09-26T16:21:41.170Z,16.65
2022-09-26T16:24:34.262Z,16.41
2022-09-26T16:27:06.374Z,16.14
2022-09-26T16:29:40.448Z,16.08
2022-09-26T16:32:22.609Z,16.09
2022-09-26T16:34:53.412Z,16.06
2022-09-26T16:37:24.105Z,16.13
2022-09-26T16:39:59.739Z,16.21
2022-09-26T16:42:32.947Z,15.96
2022-09-26T16:45:10.704Z,15.89
2022-09-26T16:47:46.291Z,15.91
2022-09-26T16:50:27.618Z,15.85
2022-09-26T16:52:58.916Z,15.89
2022-09-26T16:55:30.487Z,15.91
2022-09-26T16:58:03.269Z,16.03
2022-09-26T17:00:52.517Z,16.08
2022-09-26T17:03:26.270Z,16.03
2022-09-26T17:05:58.829Z,15.93
2022-09-26T17:08:30.845Z,15.96
2022-09-26T17:11:05.310Z,16.00
2022-09-26T17:13:40.949Z,15.97
2022-09-26T17:16:14.780Z,15.92
2022-09-26T17:18:45.914Z,15.98
2022-09-26T17:21:16.365Z,16.06
2022-09-26T17:23:48.999Z,16.01
2022-09-26T17:26:23.831Z,15.93
2022-09-26T17:28:58.242Z,15.87
2022-09-26T17:31:34.741Z,15.85
2022-09-26T17:34:05.013Z,15.91
2022-09-26T17:36:35.198Z,15.89
2022-09-26T17:39:07.947Z,15.77
2022-09-26T17:41:38.189Z,15.76
2022-09-26T17:44:08.407Z,15.71
2022-09-26T17:46:43.002Z,15.56
2022-09-26T17:49:19.102Z,15.49
2022-09-26T17:51:49.353Z,15.41
2022-09-26T17:54:21.922Z,15.33
2022-09-26T17:56:52.187Z,15.21
2022-09-26T17:59:26.768Z,15.21
2022-09-26T18:02:03.316Z,15.15
2022-09-26T18:04:34.704Z,15.10
2022-09-26T18:07:07.195Z,15.12
2022-09-26T18:09:39.499Z,15.04
2022-09-26T18:12:17.069Z,15.03
2022-09-26T18:14:47.772Z,15.04
2022-09-26T18:17:22.034Z,14.94
2022-09-26T18:19:53.247Z,14.91
2022-09-26T18:22:32.555Z,14.90
2022-09-26T18:25:09.594Z,14.90
2022-09-26T18:27:40.798Z,14.85
2022-09-26T18:30:17.665Z,14.74
2022-09-26T18:32:54.170Z,14.74
2022-09-26T18:35:28.000Z,14.76
2022-09-26T18:37:59.821Z,14.70
2022-09-26T18:40:32.150Z,14.62
2022-09-26T18:43:03.477Z,14.62
2022-09-26T18:45:37.642Z,14.69
2022-09-26T18:48:14.768Z,14.67
2022-09-26T18:50:45.114Z,14.72
2022-09-26T18:53:18.425Z,14.70
2022-09-26T18:56:01.010Z,14.79
2022-09-26T18:58:32.500Z,14.89
2022-09-26T19:01:07.126Z,14.68
2022-09-26T19:03:42.255Z,14.80
2022-09-26T19:06:18.619Z,14.82
2022-09-26T19:08:51.082Z,14.76
2022-09-26T19:11:24.818Z,14.59
2022-09-26T19:13:57.172Z,14.55
2022-09-26T19:16:28.036Z,14.49
2022-09-26T19:19:01.752Z,14.47
2022-09-26T19:21:35.425Z,14.49
2022-09-26T19:24:20.829Z,14.42
2022-09-26T19:26:55.173Z,14.32
2022-09-26T19:29:34.989Z,14.39
2022-09-26T19:32:07.911Z,14.48
2022-09-26T19:34:41.120Z,14.45
2022-09-26T19:37:14.132Z,14.43
2022-09-26T19:39:44.800Z,14.54
2022-09-26T19:42:15.876Z,14.49
2022-09-26T19:44:46.189Z,14.48
2022-09-26T19:47:20.009Z,14.43
2022-09-26T19:49:54.979Z,14.44
2022-09-26T19:52:25.345Z,14.40
2022-09-26T19:54:55.497Z,14.35
2022-09-26T19:57:27.006Z,14.41
2022-09-26T19:59:57.184Z,14.39
2022-09-26T20:02:34.849Z,14.40
2022-09-26T20:05:17.599Z,14.41
2022-09-26T20:07:48.187Z,14.35
2022-09-26T20:10:21.809Z,14.33
2022-09-26T20:12:52.052Z,14.29
2022-09-26T20:15:23.000Z,14.35
2022-09-26T20:17:55.221Z,14.31
2022-09-26T20:20:28.662Z,14.37
2022-09-26T20:22:59.467Z,14.27
2022-09-26T20:25:32.941Z,14.20
2022-09-26T20:28:03.492Z,14.16
2022-09-26T20:30:46.257Z,14.14
2022-09-26T20:33:18.263Z,14.16
2022-09-26T20:36:01.740Z,14.16
2022-09-26T20:38:37.229Z,14.22
2022-09-26T20:41:13.825Z,14.33
2022-09-26T20:43:49.913Z,14.28
2022-09-26T20:46:23.906Z,14.29
2022-09-26T20:48:54.693Z,14.34
2022-09-26T20:51:34.454Z,14.29
2022-09-26T20:54:06.721Z,14.31
2022-09-26T20:56:38.998Z,14.34
2022-09-26T20:59:09.224Z,14.33
2022-09-26T21:01:40.059Z,14.39
2022-09-26T21:04:16.621Z,14.29
2022-09-26T21:06:50.498Z,14.22
2022-09-26T21:09:23.274Z,14.28
2022-09-26T21:11:53.840Z,14.22
2022-09-26T21:14:24.159Z,14.20
2022-09-26T21:16:55.381Z,14.18
2022-09-26T21:19:28.772Z,14.28
2022-09-26T21:22:12.563Z,14.33
2022-09-26T21:24:49.479Z,14.32
2022-09-26T21:27:19.985Z,14.26
2022-09-26T21:29:50.598Z,14.24
2022-09-26T21:32:24.419Z,14.20
2022-09-26T21:35:01.282Z,14.18
2022-09-26T21:37:34.794Z,14.15
2022-09-26T21:40:05.671Z,14.12
2022-09-26T21:42:36.893Z,14.09
2022-09-26T21:45:11.074Z,14.05
2022-09-26T21:47:41.300Z,14.06
2022-09-26T21:50:13.215Z,14.12
2022-09-26T21:52:52.864Z,14.14
2022-09-26T21:55:29.893Z,14.18
2022-09-26T21:58:03.579Z,14.20
2022-09-26T22:00:33.763Z,14.33
2022-09-26T22:03:04.738Z,14.33
2022-09-26T22:05:34.624Z,14.32
2022-09-26T22:08:07.731Z,14.37
2022-09-26T22:10:39.003Z,14.38
2022-09-26T22:13:09.301Z,14.41
2022-09-26T22:15:39.464Z,14.32
2022-09-26T22:18:10.046Z,14.24
2022-09-26T22:20:40.259Z,14.16
2022-09-26T22:23:12.996Z,14.08
2022-09-26T22:25:43.303Z,14.06
2022-09-26T22:28:13.498Z,14.10
2022-09-26T22:30:43.621Z,14.06
2022-09-26T22:33:13.997Z,14.04
2022-09-26T22:35:44.176Z,14.04
2022-09-26T22:38:18.148Z,14.08
2022-09-26T22:40:55.930Z,14.14
2022-09-26T22:43:26.503Z,14.18
2022-09-26T22:46:03.494Z,14.05
2022-09-26T22:48:35.818Z,13.97
2022-09-26T22:51:06.627Z,13.97
2022-09-26T22:53:41.834Z,13.99
2022-09-26T22:56:15.083Z,14.03
2022-09-26T22:58:47.326Z,13.92
2022-09-26T23:01:20.471Z,13.97
2022-09-26T23:03:52.072Z,13.97
2022-09-26T23:06:23.110Z,13.87
2022-09-26T23:08:56.275Z,13.83
2022-09-26T23:11:28.043Z,13.86
2022-09-26T23:13:58.234Z,13.84
2022-09-26T23:16:29.222Z,13.91
2022-09-26T23:19:00.561Z,13.92
2022-09-26T23:21:31.178Z,13.93
2022-09-26T23:24:04.937Z,13.93
2022-09-26T23:26:35.452Z,13.94
2022-09-26T23:29:05.696Z,14.01
2022-09-26T23:31:35.892Z,13.98
2022-09-26T23:34:06.368Z,14.03
2022-09-26T23:36:36.536Z,14.05
2022-09-26T23:39:09.721Z,14.10
2022-09-26T23:41:39.954Z,14.13
2022-09-26T23:44:10.190Z,14.12
2022-09-26T23:46:40.453Z,14.07
2022-09-26T23:49:10.720Z,14.09
2022-09-26T23:51:41.809Z,14.05
2022-09-26T23:54:14.756Z,14.11
2022-09-26T23:56:44.996Z,14.19
2022-09-26T23:59:15.265Z,14.16
